createdAt,value
2018-05-31T00:00:38.798Z,83.39
2018-05-31T00:03:08.532Z,83.22
2018-05-31T00:05:38.650Z,82.81
2018-05-31T00:08:08.776Z,82.58
2018-05-31T00:10:38.498Z,81.84
2018-05-31T00:13:08.516Z,81.99
2018-05-31T00:15:39.467Z,82.18
2018-05-31T00:18:09.196Z,82.19
2018-05-31T00:20:38.754Z,82.23
2018-05-31T00:23:08.950Z,82.04
2018-05-31T00:25:38.656Z,81.55
2018-05-31T00:28:08.419Z,81.00
2018-05-31T00:30:38.134Z,80.64
2018-05-31T00:33:07.735Z,81.01
2018-05-31T00:35:37.330Z,80.66
2018-05-31T00:38:07.094Z,80.86
2018-05-31T00:40:36.805Z,80.40
2018-05-31T00:43:06.590Z,80.44
2018-05-31T00:45:36.318Z,80.56
2018-05-31T00:48:05.869Z,80.65
2018-05-31T00:50:35.990Z,80.69
2018-05-31T00:53:05.536Z,80.39
2018-05-31T00:55:52.242Z,80.75
2018-05-31T00:58:21.956Z,80.75
2018-05-31T01:00:51.749Z,81.06
2018-05-31T01:03:21.463Z,80.96
2018-05-31T01:05:51.184Z,80.97
2018-05-31T01:08:20.913Z,81.30
2018-05-31T01:10:50.647Z,81.15
2018-05-31T01:13:20.384Z,81.16
2018-05-31T01:15:50.530Z,80.67
2018-05-31T01:18:20.282Z,80.85
2018-05-31T01:20:50.022Z,80.92
2018-05-31T01:23:20.145Z,80.97
2018-05-31T01:25:50.257Z,80.93
2018-05-31T01:28:21.182Z,80.29
2018-05-31T01:30:50.911Z,80.42
2018-05-31T01:33:21.041Z,80.28
2018-05-31T01:35:51.161Z,80.43
2018-05-31T01:38:34.826Z,80.27
2018-05-31T01:41:04.557Z,80.21
2018-05-31T01:43:34.285Z,80.20
2018-05-31T01:46:04.014Z,80.39
2018-05-31T01:48:33.965Z,80.76
2018-05-31T01:51:03.724Z,81.38
2018-05-31T01:53:33.593Z,81.30
2018-05-31T01:56:03.936Z,81.33
2018-05-31T01:58:33.943Z,81.39
2018-05-31T02:01:04.426Z,81.42
2018-05-31T02:03:34.441Z,81.74
2018-05-31T02:06:04.561Z,81.93
2018-05-31T02:08:34.316Z,81.82
2018-05-31T02:11:04.117Z,81.23
2018-05-31T02:13:33.825Z,81.26
2018-05-31T02:16:03.559Z,80.69
2018-05-31T02:18:33.092Z,80.94
2018-05-31T02:21:02.820Z,81.04
2018-05-31T02:23:32.573Z,81.30
2018-05-31T02:26:02.322Z,81.24
2018-05-31T02:28:31.839Z,81.00
2018-05-31T02:31:01.903Z,81.14
2018-05-31T02:33:31.643Z,81.14
2018-05-31T02:36:01.388Z,81.59
2018-05-31T02:38:31.117Z,81.68
2018-05-31T02:41:00.643Z,81.04
2018-05-31T02:43:30.387Z,81.11
2018-05-31T02:46:00.092Z,81.74
2018-05-31T02:48:29.814Z,81.88
2018-05-31T02:50:59.563Z,81.85
2018-05-31T02:53:29.682Z,82.19
2018-05-31T02:55:59.809Z,82.62
2018-05-31T02:58:29.923Z,82.60
2018-05-31T03:01:00.064Z,82.60
2018-05-31T03:03:29.775Z,82.49
2018-05-31T03:05:59.299Z,82.46
2018-05-31T03:08:29.085Z,82.37
2018-05-31T03:10:58.621Z,82.22
2018-05-31T03:13:28.187Z,82.49
2018-05-31T03:15:58.155Z,81.97
2018-05-31T03:18:27.887Z,81.96
2018-05-31T03:20:57.625Z,81.46
2018-05-31T03:23:27.775Z,81.60
2018-05-31T03:25:57.480Z,81.50
2018-05-31T03:28:27.205Z,81.72
2018-05-31T03:30:56.738Z,81.55
2018-05-31T03:33:26.477Z,81.86
2018-05-31T03:35:56.271Z,81.75
2018-05-31T03:38:26.006Z,82.04
2018-05-31T03:40:55.814Z,81.77
2018-05-31T03:43:25.591Z,81.93
2018-05-31T03:45:55.306Z,81.79
2018-05-31T03:48:25.031Z,82.29
2018-05-31T03:50:54.739Z,82.37
2018-05-31T03:53:24.271Z,82.38
2018-05-31T03:55:54.613Z,81.89
2018-05-31T03:58:24.358Z,81.44
2018-05-31T04:00:54.125Z,79.76
2018-05-31T04:03:24.305Z,80.37
2018-05-31T04:05:54.017Z,80.45
2018-05-31T04:08:23.741Z,80.73
2018-05-31T04:10:55.227Z,80.33
2018-05-31T04:13:24.745Z,80.61
2018-05-31T04:15:54.735Z,80.54
2018-05-31T04:18:24.863Z,80.62
2018-05-31T04:20:54.403Z,80.56
2018-05-31T04:23:23.965Z,79.83
2018-05-31T04:25:53.883Z,79.88
2018-05-31T04:28:24.047Z,79.29
2018-05-31T04:30:53.768Z,79.48
2018-05-31T04:33:23.486Z,80.09
2018-05-31T04:35:53.185Z,79.07
2018-05-31T04:38:22.913Z,78.63
2018-05-31T04:40:52.676Z,78.20
2018-05-31T04:43:22.397Z,76.09
2018-05-31T04:45:52.153Z,74.29
2018-05-31T04:48:21.951Z,73.63
2018-05-31T04:50:51.725Z,73.15
2018-05-31T04:53:21.503Z,73.72
2018-05-31T04:55:51.263Z,74.36
2018-05-31T04:58:20.997Z,74.94
2018-05-31T05:00:50.737Z,76.93
2018-05-31T05:03:20.449Z,78.30
2018-05-31T05:05:50.211Z,79.29
2018-05-31T05:08:19.830Z,80.11
2018-05-31T05:10:49.369Z,80.16
2018-05-31T05:13:19.111Z,80.64
2018-05-31T05:15:48.655Z,81.13
2018-05-31T05:18:18.233Z,81.55
2018-05-31T05:20:47.959Z,82.17
2018-05-31T05:23:18.041Z,81.94
2018-05-31T05:25:48.157Z,80.47
2018-05-31T05:28:18.308Z,78.84
2018-05-31T05:30:48.023Z,77.58
2018-05-31T05:33:17.749Z,75.28
2018-05-31T05:35:47.305Z,73.31
2018-05-31T05:38:16.693Z,71.89
2018-05-31T05:40:46.431Z,72.88
2018-05-31T05:43:16.659Z,75.84
2018-05-31T05:45:46.393Z,76.38
2018-05-31T05:48:16.131Z,77.37
2018-05-31T05:50:45.864Z,79.22
2018-05-31T05:53:15.583Z,79.83
2018-05-31T05:55:45.729Z,79.01
2018-05-31T05:58:15.468Z,78.47
2018-05-31T06:00:47.302Z,77.00
2018-05-31T06:03:17.960Z,78.53
2018-05-31T06:05:47.696Z,79.83
2018-05-31T06:08:17.463Z,79.23
2018-05-31T06:10:47.222Z,78.51
2018-05-31T06:13:16.980Z,76.20
2018-05-31T06:15:46.715Z,76.00
2018-05-31T06:18:16.479Z,75.65
2018-05-31T06:20:46.275Z,75.27
2018-05-31T06:23:15.997Z,74.11
2018-05-31T06:25:45.720Z,73.90
2018-05-31T06:28:15.258Z,73.07
2018-05-31T06:33:13.269Z,71.87
2018-05-31T06:35:42.498Z,71.42
2018-05-31T06:38:12.647Z,71.15
2018-05-31T06:40:42.751Z,68.74
2018-05-31T06:43:12.872Z,69.07
2018-05-31T06:45:43.632Z,69.06
2018-05-31T06:48:13.720Z,68.80
2018-05-31T06:50:44.048Z,67.98
2018-05-31T06:53:14.206Z,68.00
2018-05-31T06:55:44.696Z,65.36
2018-05-31T06:58:14.789Z,62.82
2018-05-31T07:00:44.908Z,63.56
2018-05-31T07:03:15.170Z,63.31
2018-05-31T07:05:45.312Z,62.04
2018-05-31T07:08:15.830Z,61.24
2018-05-31T07:10:45.926Z,61.54
2018-05-31T07:13:16.004Z,61.14
2018-05-31T07:15:46.678Z,59.96
2018-05-31T07:18:16.436Z,59.60
2018-05-31T07:20:46.918Z,61.03
2018-05-31T07:23:17.070Z,61.95
2018-05-31T07:25:47.146Z,61.46
2018-05-31T07:28:17.302Z,62.23
2018-05-31T07:30:47.384Z,61.58
2018-05-31T07:33:17.506Z,59.54
2018-05-31T07:35:48.042Z,59.67
2018-05-31T07:38:18.175Z,58.87
2018-05-31T07:40:48.434Z,60.17
2018-05-31T07:43:18.928Z,61.00
2018-05-31T07:45:49.083Z,60.44
2018-05-31T07:48:19.604Z,60.26
2018-05-31T07:50:49.726Z,58.82
2018-05-31T07:53:19.838Z,58.03
2018-05-31T07:55:49.967Z,57.62
2018-05-31T07:58:20.120Z,57.34
2018-05-31T08:00:50.362Z,56.46
2018-05-31T08:03:20.458Z,57.37
2018-05-31T08:05:50.979Z,55.52
2018-05-31T08:08:21.266Z,56.70
2018-05-31T08:10:51.351Z,57.08
2018-05-31T08:13:21.472Z,57.55
2018-05-31T08:15:51.558Z,57.61
2018-05-31T08:18:22.035Z,57.06
2018-05-31T08:20:52.116Z,55.80
2018-05-31T08:23:22.855Z,54.98
2018-05-31T08:25:52.938Z,55.34
2018-05-31T08:28:23.035Z,53.56
2018-05-31T08:30:53.120Z,54.75
2018-05-31T08:33:23.231Z,56.16
2018-05-31T08:35:54.306Z,55.26
2018-05-31T08:38:24.418Z,56.19
2018-05-31T08:40:54.498Z,56.93
2018-05-31T08:43:25.007Z,57.12
2018-05-31T08:45:55.112Z,57.43
2018-05-31T08:48:25.234Z,58.44
2018-05-31T08:50:55.326Z,55.82
2018-05-31T08:53:25.426Z,57.12
2018-05-31T08:55:55.513Z,56.76
2018-05-31T08:58:26.051Z,58.69
2018-05-31T09:00:56.564Z,59.00
2018-05-31T09:03:26.660Z,60.47
2018-05-31T09:05:56.735Z,60.24
2018-05-31T09:08:26.874Z,59.53
2018-05-31T09:10:57.048Z,60.62
2018-05-31T09:13:27.181Z,59.96
2018-05-31T09:15:57.389Z,61.84
2018-05-31T09:18:27.927Z,64.30
2018-05-31T09:20:58.454Z,64.48
2018-05-31T09:23:28.984Z,62.34
2018-05-31T09:25:59.087Z,57.61
2018-05-31T09:28:29.197Z,55.74
2018-05-31T09:30:59.520Z,55.64
2018-05-31T09:33:29.617Z,56.19
2018-05-31T09:35:59.703Z,53.00
2018-05-31T09:38:30.378Z,52.93
2018-05-31T09:41:00.482Z,55.78
2018-05-31T09:43:30.594Z,54.18
2018-05-31T09:46:00.673Z,52.80
2018-05-31T09:48:30.508Z,52.05
2018-05-31T09:51:01.047Z,51.56
2018-05-31T09:53:31.211Z,51.20
2018-05-31T09:56:01.275Z,52.08
2018-05-31T09:58:31.760Z,50.87
2018-05-31T10:01:01.562Z,50.04
2018-05-31T10:03:31.699Z,49.69
2018-05-31T10:06:01.790Z,49.36
2018-05-31T10:08:31.908Z,48.13
2018-05-31T10:11:02.012Z,47.66
2018-05-31T10:13:32.124Z,48.61
2018-05-31T10:16:02.221Z,48.67
2018-05-31T10:18:32.344Z,47.55
2018-05-31T10:21:02.828Z,45.73
2018-05-31T10:23:32.910Z,45.06
2018-05-31T10:26:03.398Z,46.16
2018-05-31T10:28:33.483Z,46.94
2018-05-31T10:31:03.570Z,46.60
2018-05-31T10:33:34.085Z,43.23
2018-05-31T10:36:04.165Z,46.50
2018-05-31T10:38:34.241Z,47.08
2018-05-31T10:41:04.724Z,44.60
2018-05-31T10:43:34.839Z,46.44
2018-05-31T10:46:04.919Z,44.73
2018-05-31T10:48:35.423Z,46.27
2018-05-31T10:51:05.585Z,45.96
2018-05-31T10:53:36.141Z,45.06
2018-05-31T10:56:05.879Z,45.43
2018-05-31T10:58:35.965Z,43.88
2018-05-31T11:01:06.055Z,46.27
2018-05-31T11:03:36.527Z,44.25
2018-05-31T11:06:06.619Z,44.91
2018-05-31T11:08:36.739Z,46.47
2018-05-31T11:11:07.079Z,45.26
2018-05-31T11:13:37.185Z,44.65
2018-05-31T11:16:07.255Z,43.89
2018-05-31T11:18:37.767Z,42.27
2018-05-31T11:21:07.859Z,42.32
2018-05-31T11:23:38.489Z,42.47
2018-05-31T11:26:08.637Z,44.01
2018-05-31T11:28:38.764Z,45.40
2018-05-31T11:31:08.845Z,41.78
2018-05-31T11:33:39.019Z,42.96
2018-05-31T11:36:09.639Z,42.81
2018-05-31T11:38:40.068Z,41.78
2018-05-31T11:41:10.145Z,44.72
2018-05-31T11:43:40.620Z,44.86
2018-05-31T11:46:10.732Z,42.83
2018-05-31T11:48:41.040Z,41.30
2018-05-31T11:51:11.119Z,43.23
2018-05-31T11:53:41.215Z,38.41
2018-05-31T11:56:11.706Z,40.24
2018-05-31T11:58:41.849Z,39.61
2018-05-31T12:01:11.966Z,39.72
2018-05-31T12:03:42.083Z,39.20
2018-05-31T12:06:12.366Z,39.35
2018-05-31T12:08:42.478Z,39.71
2018-05-31T12:11:12.556Z,39.65
2018-05-31T12:13:42.703Z,39.67
2018-05-31T12:16:13.169Z,39.11
2018-05-31T12:18:43.004Z,37.97
2018-05-31T12:21:13.099Z,37.77
2018-05-31T12:23:43.234Z,40.90
2018-05-31T12:26:13.329Z,42.25
2018-05-31T12:28:43.504Z,41.29
2018-05-31T12:31:14.071Z,41.25
2018-05-31T12:33:44.184Z,40.63
2018-05-31T12:36:14.248Z,42.27
2018-05-31T12:38:44.367Z,44.79
2018-05-31T12:41:14.486Z,43.50
2018-05-31T12:43:44.601Z,44.37
2018-05-31T12:46:14.685Z,43.11
2018-05-31T12:48:44.785Z,42.32
2018-05-31T12:51:15.288Z,43.60
2018-05-31T12:53:45.400Z,42.56
2018-05-31T12:56:15.689Z,40.38
2018-05-31T12:58:45.791Z,41.68
2018-05-31T13:01:15.575Z,41.13
2018-05-31T13:03:46.056Z,42.19
2018-05-31T13:06:15.919Z,42.74
2018-05-31T13:08:46.421Z,42.03
2018-05-31T13:11:16.495Z,42.25
2018-05-31T13:13:46.304Z,40.84
2018-05-31T13:16:16.591Z,40.16
2018-05-31T13:18:46.701Z,38.84
2018-05-31T13:21:17.023Z,40.93
2018-05-31T13:23:47.143Z,40.01
2018-05-31T13:26:17.355Z,41.11
2018-05-31T13:28:47.455Z,39.80
2018-05-31T13:31:17.559Z,41.13
2018-05-31T13:33:47.375Z,40.44
2018-05-31T13:36:17.452Z,40.35
2018-05-31T13:38:47.547Z,39.02
2018-05-31T13:41:17.648Z,38.65
2018-05-31T13:43:47.781Z,38.81
2018-05-31T13:46:17.623Z,39.33
2018-05-31T13:48:48.127Z,38.45
2018-05-31T13:51:17.937Z,40.03
2018-05-31T13:53:48.029Z,39.12
2018-05-31T13:56:18.163Z,39.58
2018-05-31T13:58:48.239Z,41.39
2018-05-31T14:01:18.719Z,40.21
2018-05-31T14:03:48.811Z,40.20
2018-05-31T14:06:18.909Z,39.84
2018-05-31T14:08:48.688Z,40.10
2018-05-31T14:11:18.443Z,41.35
2018-05-31T14:13:49.219Z,41.31
2018-05-31T14:16:19.309Z,42.79
2018-05-31T14:18:49.396Z,43.28
2018-05-31T14:21:19.457Z,42.28
2018-05-31T14:23:49.604Z,41.24
2018-05-31T14:26:19.719Z,41.73
2018-05-31T14:28:49.840Z,40.58
2018-05-31T14:31:19.926Z,40.12
2018-05-31T14:33:50.420Z,40.37
2018-05-31T14:36:20.927Z,41.35
2018-05-31T14:38:51.028Z,40.93
2018-05-31T14:41:21.114Z,41.29
2018-05-31T14:43:51.243Z,41.47
2018-05-31T14:46:21.397Z,41.21
2018-05-31T14:48:51.201Z,40.70
2018-05-31T14:51:21.289Z,43.43
2018-05-31T14:53:51.383Z,42.77
2018-05-31T14:56:21.535Z,43.93
2018-05-31T14:58:51.644Z,43.98
2018-05-31T15:01:22.134Z,44.03
2018-05-31T15:03:52.266Z,43.59
2018-05-31T15:06:22.936Z,44.27
2018-05-31T15:08:53.032Z,45.15
2018-05-31T15:11:23.183Z,43.75
2018-05-31T15:13:53.293Z,44.00
2018-05-31T15:16:23.866Z,43.12
2018-05-31T15:18:54.014Z,42.63
2018-05-31T15:21:24.115Z,42.12
2018-05-31T15:23:55.417Z,43.17
2018-05-31T15:26:25.524Z,42.82
2018-05-31T15:28:55.735Z,43.25
2018-05-31T15:31:26.229Z,42.13
2018-05-31T15:33:56.322Z,42.47
2018-05-31T15:36:26.405Z,42.71
2018-05-31T15:38:56.912Z,43.58
2018-05-31T15:41:27.036Z,43.78
2018-05-31T15:43:57.578Z,43.62
2018-05-31T15:46:28.077Z,43.68
2018-05-31T15:48:58.254Z,44.40
2018-05-31T15:51:28.355Z,45.57
2018-05-31T15:53:58.860Z,45.97
2018-05-31T15:56:28.994Z,49.48
2018-05-31T15:58:59.548Z,51.64
2018-05-31T16:01:29.656Z,56.38
2018-05-31T16:04:00.178Z,54.50
2018-05-31T16:06:30.680Z,57.53
2018-05-31T16:09:00.836Z,58.78
2018-05-31T16:11:31.382Z,58.57
2018-05-31T16:14:01.536Z,58.96
2018-05-31T16:16:31.646Z,57.23
2018-05-31T16:19:01.746Z,58.67
2018-05-31T16:21:31.839Z,58.02
2018-05-31T16:24:02.342Z,58.05
2018-05-31T16:26:32.434Z,56.88
2018-05-31T16:29:02.524Z,57.35
2018-05-31T16:31:32.390Z,57.68
2018-05-31T16:34:02.504Z,56.94
2018-05-31T16:36:32.608Z,56.06
2018-05-31T16:39:02.697Z,55.22
2018-05-31T16:41:33.778Z,54.64
2018-05-31T16:44:04.523Z,54.95
2018-05-31T16:46:34.638Z,56.80
2018-05-31T16:49:04.764Z,59.16
2018-05-31T16:51:35.074Z,60.55
2018-05-31T16:54:04.829Z,59.36
2018-05-31T16:56:35.015Z,61.49
2018-05-31T16:59:05.112Z,62.82
2018-05-31T17:01:35.454Z,64.65
2018-05-31T17:04:05.553Z,65.06
2018-05-31T17:06:35.628Z,65.92
2018-05-31T17:09:06.171Z,66.37
2018-05-31T17:11:36.288Z,66.50
2018-05-31T17:14:06.800Z,65.56
2018-05-31T17:16:36.894Z,64.52
2018-05-31T17:19:07.008Z,64.49
2018-05-31T17:21:37.097Z,63.74
2018-05-31T17:24:07.225Z,62.98
2018-05-31T17:26:37.312Z,62.69
2018-05-31T17:29:07.848Z,62.23
2018-05-31T17:31:38.387Z,61.95
2018-05-31T17:34:08.480Z,61.61
2018-05-31T17:36:38.636Z,61.22
2018-05-31T17:39:08.744Z,59.18
2018-05-31T17:41:39.234Z,59.36
2018-05-31T17:44:09.388Z,60.33
2018-05-31T17:46:39.876Z,60.37
2018-05-31T17:49:09.970Z,60.29
2018-05-31T17:51:40.070Z,60.81
2018-05-31T17:54:10.174Z,59.22
2018-05-31T17:56:40.636Z,59.85
2018-05-31T17:59:10.710Z,60.04
2018-05-31T18:01:40.796Z,60.46
2018-05-31T18:04:10.982Z,60.63
2018-05-31T18:06:41.068Z,61.62
2018-05-31T18:09:11.584Z,61.98
2018-05-31T18:11:41.746Z,62.98
2018-05-31T18:14:11.834Z,63.41
2018-05-31T18:16:42.340Z,63.68
2018-05-31T18:19:12.441Z,63.80
2018-05-31T18:21:43.396Z,63.86
2018-05-31T18:24:13.504Z,63.56
2018-05-31T18:26:43.402Z,64.05
2018-05-31T18:29:13.510Z,64.71
2018-05-31T18:31:43.591Z,64.41
2018-05-31T18:34:13.692Z,64.29
2018-05-31T18:36:44.196Z,64.34
2018-05-31T18:39:13.970Z,64.40
2018-05-31T18:41:44.485Z,63.67
2018-05-31T18:44:14.602Z,61.88
2018-05-31T18:46:44.699Z,61.51
2018-05-31T18:49:15.118Z,60.81
2018-05-31T18:51:45.233Z,58.96
2018-05-31T18:54:15.306Z,57.92
2018-05-31T18:56:45.438Z,57.91
2018-05-31T19:06:02.573Z,60.29
2018-05-31T19:08:32.088Z,60.62
2018-05-31T19:11:01.616Z,60.02
2018-05-31T19:13:36.560Z,60.78
2018-05-31T19:16:06.083Z,59.46
2018-05-31T19:18:44.314Z,60.49
2018-05-31T19:21:13.875Z,60.61
2018-05-31T19:23:43.431Z,61.67
2018-05-31T19:26:13.196Z,63.19
2018-05-31T19:28:42.471Z,64.06
2018-05-31T19:31:11.781Z,65.29
2018-05-31T19:33:41.305Z,67.05
2018-05-31T19:36:16.198Z,67.50
2018-05-31T19:38:45.713Z,68.62
2018-05-31T19:41:15.311Z,68.50
2018-05-31T19:43:50.281Z,69.19
2018-05-31T19:46:19.847Z,70.19
2018-05-31T19:48:49.389Z,71.21
2018-05-31T19:54:24.863Z,72.12
2018-05-31T19:56:54.374Z,72.04
2018-05-31T19:59:29.280Z,73.54
2018-05-31T20:02:04.117Z,73.87
2018-05-31T20:08:10.255Z,75.30
2018-05-31T20:10:40.173Z,75.76
2018-05-31T20:13:10.098Z,74.75
2018-05-31T20:15:39.612Z,74.85
2018-05-31T20:18:09.121Z,75.59
2018-05-31T20:20:38.703Z,75.57
2018-05-31T20:23:08.751Z,77.24
2018-05-31T20:25:38.296Z,77.62
2018-05-31T20:28:07.877Z,78.45
2018-05-31T20:30:37.530Z,79.36
2018-05-31T20:33:07.209Z,79.81
2018-05-31T20:35:36.752Z,80.53
2018-05-31T20:38:06.695Z,81.33
2018-05-31T20:40:36.262Z,80.57
2018-05-31T20:43:05.171Z,81.16
2018-05-31T20:45:35.087Z,80.79
2018-05-31T20:48:05.003Z,81.29
2018-05-31T20:50:34.965Z,80.97
2018-05-31T20:53:04.563Z,80.19
2018-05-31T20:55:34.115Z,79.82
2018-05-31T20:58:03.664Z,79.52
2018-05-31T21:00:34.061Z,79.18
2018-05-31T21:03:04.061Z,79.98
2018-05-31T21:05:33.675Z,79.95
2018-05-31T21:08:03.437Z,79.99
2018-05-31T21:10:33.071Z,79.53
2018-05-31T21:13:02.656Z,79.31
2018-05-31T21:15:33.071Z,79.10
2018-05-31T21:21:38.140Z,80.04
2018-05-31T21:24:07.749Z,79.92
2018-05-31T21:26:37.279Z,78.61
2018-05-31T21:29:06.825Z,78.55
2018-05-31T21:31:36.751Z,78.43
2018-05-31T21:34:07.543Z,78.19
2018-05-31T21:36:37.126Z,78.32
2018-05-31T21:39:06.475Z,78.64
2018-05-31T21:41:36.502Z,77.92
2018-05-31T21:44:06.427Z,78.07
2018-05-31T21:46:36.063Z,78.06
2018-05-31T21:49:05.609Z,77.96
2018-05-31T21:51:35.143Z,77.46
2018-05-31T21:54:04.781Z,77.81
2018-05-31T21:56:34.299Z,77.55
2018-05-31T21:59:03.840Z,77.67
2018-05-31T22:01:33.377Z,77.39
2018-05-31T22:04:03.359Z,77.30
2018-05-31T22:06:33.612Z,77.64
2018-05-31T22:09:02.929Z,78.83
2018-05-31T22:11:32.465Z,78.92
2018-05-31T22:14:02.206Z,78.89
2018-05-31T22:16:32.169Z,79.11
2018-05-31T22:19:01.953Z,78.98
2018-05-31T22:21:31.906Z,78.83
2018-05-31T22:24:01.486Z,79.28
2018-05-31T22:26:31.524Z,79.25
2018-05-31T22:29:01.060Z,78.97
2018-05-31T22:31:30.689Z,78.85
2018-05-31T22:34:00.301Z,78.73
2018-05-31T22:36:29.887Z,78.45
2018-05-31T22:38:59.963Z,78.34
2018-05-31T22:41:29.639Z,78.13
2018-05-31T22:43:59.383Z,78.42
2018-05-31T22:46:28.927Z,78.57
2018-05-31T22:49:49.189Z,78.58
2018-05-31T22:52:18.718Z,79.27
2018-05-31T22:54:48.271Z,79.20
2018-05-31T22:57:17.826Z,79.87
2018-05-31T22:59:47.359Z,79.76
2018-05-31T23:02:16.919Z,79.36
2018-05-31T23:04:46.129Z,79.36
2018-05-31T23:07:16.383Z,79.16
2018-05-31T23:09:45.945Z,79.22
2018-05-31T23:12:15.537Z,79.86
2018-05-31T23:14:45.466Z,79.66
2018-05-31T23:17:15.753Z,79.78
2018-05-31T23:19:45.362Z,79.56
2018-05-31T23:22:14.899Z,79.47
2018-05-31T23:24:44.945Z,79.43
2018-05-31T23:27:14.461Z,79.09
2018-05-31T23:29:44.014Z,78.99
2018-05-31T23:32:13.566Z,78.89
2018-05-31T23:34:43.116Z,78.35
2018-05-31T23:41:49.308Z,78.88
2018-05-31T23:44:18.865Z,79.08
2018-05-31T23:46:48.407Z,79.22
2018-05-31T23:49:18.002Z,78.75
2018-05-31T23:51:47.799Z,79.01
2018-05-31T23:54:17.337Z,79.00
2018-05-31T23:56:46.937Z,79.01
2018-05-31T23:59:16.473Z,78.56
